createdAt,value
2023-03-16T00:01:02.866Z,98617.88
2023-03-16T00:03:30.614Z,98620.56
2023-03-16T00:05:57.559Z,98609.00
2023-03-16T00:08:24.479Z,98609.59
2023-03-16T00:10:54.355Z,98607.72
2023-03-16T00:13:25.386Z,98603.41
2023-03-16T00:15:56.425Z,98587.78
2023-03-16T00:18:27.362Z,98587.22
2023-03-16T00:20:55.637Z,98593.63
2023-03-16T00:23:28.988Z,98588.59
2023-03-16T00:25:56.844Z,98586.47
2023-03-16T00:28:23.868Z,98590.78
2023-03-16T00:30:50.912Z,98595.94
2023-03-16T00:33:18.105Z,98595.72
2023-03-16T00:35:49.979Z,98601.88
2023-03-16T00:38:20.555Z,98599.22
2023-03-16T00:40:47.484Z,98594.66
2023-03-16T00:43:18.850Z,98605.97
2023-03-16T00:45:45.969Z,98592.53
2023-03-16T00:48:13.143Z,98601.88
2023-03-16T00:50:40.246Z,98595.94
2023-03-16T00:53:07.174Z,98599.09
2023-03-16T00:55:34.144Z,98595.25
2023-03-16T00:58:05.127Z,98601.13
2023-03-16T01:00:32.568Z,98596.72
2023-03-16T01:02:59.447Z,98600.69
2023-03-16T01:05:26.359Z,98600.38
2023-03-16T01:07:53.129Z,98593.38
2023-03-16T01:10:20.952Z,98591.97
2023-03-16T01:12:48.117Z,98594.31
2023-03-16T01:15:15.016Z,98596.41
2023-03-16T01:17:41.975Z,98599.34
2023-03-16T01:20:12.219Z,98602.00
2023-03-16T01:22:39.110Z,98600.16
2023-03-16T01:25:06.174Z,98596.16
2023-03-16T01:27:33.162Z,98596.78
2023-03-16T01:30:00.257Z,98595.72
2023-03-16T01:32:27.183Z,98602.13
2023-03-16T01:34:54.055Z,98599.47
2023-03-16T01:37:22.987Z,98606.44
2023-03-16T01:39:55.455Z,98596.78
2023-03-16T01:42:22.434Z,98600.50
2023-03-16T01:44:55.234Z,98593.72
2023-03-16T01:47:24.656Z,98597.47
2023-03-16T01:49:55.192Z,98602.00
2023-03-16T01:52:27.109Z,98604.69
2023-03-16T01:55:04.515Z,98607.72
2023-03-16T01:57:37.026Z,98604.47
2023-03-16T02:00:20.079Z,98597.69
2023-03-16T02:03:08.013Z,98596.66
2023-03-16T02:05:47.592Z,98597.94
2023-03-16T02:08:16.869Z,98602.16
2023-03-16T02:10:45.415Z,98599.72
2023-03-16T02:13:12.836Z,98606.94
2023-03-16T02:15:40.224Z,98617.19
2023-03-16T02:18:08.039Z,98612.16
2023-03-16T02:20:57.584Z,98599.34
2023-03-16T02:23:25.545Z,98605.50
2023-03-16T02:26:03.601Z,98600.16
2023-03-16T02:28:45.298Z,98595.59
2023-03-16T02:31:12.489Z,98605.88
2023-03-16T02:33:40.324Z,98602.72
2023-03-16T02:36:08.875Z,98596.06
2023-03-16T02:38:35.926Z,98595.56
2023-03-16T02:41:14.785Z,98589.16
2023-03-16T02:43:44.177Z,98589.47
2023-03-16T02:46:21.656Z,98588.19
2023-03-16T02:49:08.963Z,98586.06
2023-03-16T02:51:37.174Z,98584.53
2023-03-16T02:54:04.235Z,98581.84
2023-03-16T02:56:34.623Z,98584.53
2023-03-16T02:59:01.498Z,98585.09
2023-03-16T03:01:32.654Z,98588.59
2023-03-16T03:03:59.572Z,98590.72
2023-03-16T03:06:26.454Z,98589.09
2023-03-16T03:08:53.496Z,98579.66
2023-03-16T03:11:21.161Z,98580.47
2023-03-16T03:13:47.944Z,98578.34
2023-03-16T03:16:18.924Z,98575.19
2023-03-16T03:18:45.884Z,98581.13
2023-03-16T03:21:13.145Z,98578.44
2023-03-16T03:23:40.612Z,98591.28
2023-03-16T03:26:07.934Z,98577.88
2023-03-16T03:28:34.824Z,98574.38
2023-03-16T03:31:01.971Z,98576.00
2023-03-16T03:33:29.675Z,98575.75
2023-03-16T03:35:58.215Z,98571.19
2023-03-16T03:38:27.629Z,98575.28
2023-03-16T03:40:59.659Z,98571.06
2023-03-16T03:43:30.198Z,98569.53
2023-03-16T03:46:00.984Z,98580.59
2023-03-16T03:48:28.665Z,98567.16
2023-03-16T03:50:57.202Z,98567.16
2023-03-16T03:53:42.693Z,98565.78
2023-03-16T03:56:24.438Z,98579.44
2023-03-16T03:58:51.293Z,98577.56
2023-03-16T04:01:33.439Z,98581.31
2023-03-16T04:04:00.762Z,98585.88
2023-03-16T04:06:28.082Z,98585.88
2023-03-16T04:08:55.280Z,98576.44
2023-03-16T04:11:26.035Z,98575.63
2023-03-16T04:13:53.643Z,98572.13
2023-03-16T04:16:21.431Z,98574.47
2023-03-16T04:18:51.949Z,98575.75
2023-03-16T04:21:18.844Z,98572.50
2023-03-16T04:23:48.124Z,98569.00
2023-03-16T04:26:14.987Z,98575.66
2023-03-16T04:28:44.129Z,98568.59
2023-03-16T04:31:14.424Z,98577.94
2023-03-16T04:33:44.678Z,98579.00
2023-03-16T04:36:12.326Z,98577.59
2023-03-16T04:38:40.510Z,98576.78
2023-03-16T04:41:07.481Z,98582.41
2023-03-16T04:43:39.064Z,98588.81
2023-03-16T04:46:12.494Z,98596.88
2023-03-16T04:48:40.150Z,98595.56
2023-03-16T04:51:07.293Z,98591.59
2023-03-16T04:53:38.106Z,98602.66
2023-03-16T04:56:19.806Z,98609.66
2023-03-16T04:58:52.473Z,98614.78
2023-03-16T05:01:22.175Z,98622.00
2023-03-16T05:03:53.028Z,98615.25
2023-03-16T05:06:20.240Z,98618.19
2023-03-16T05:08:47.105Z,98621.44
2023-03-16T05:11:14.006Z,98612.09
2023-03-16T05:13:50.193Z,98621.75
2023-03-16T05:16:17.174Z,98625.84
2023-03-16T05:18:43.909Z,98619.41
2023-03-16T05:21:10.834Z,98623.47
2023-03-16T05:24:02.544Z,98613.00
2023-03-16T05:26:29.427Z,98615.34
2023-03-16T05:28:56.450Z,98621.75
2023-03-16T05:31:28.942Z,98612.91
2023-03-16T05:33:58.807Z,98606.47
2023-03-16T05:36:26.009Z,98609.72
2023-03-16T05:38:58.360Z,98616.81
2023-03-16T05:41:36.514Z,98621.50
2023-03-16T05:44:08.583Z,98618.31
2023-03-16T05:46:52.881Z,98619.13
2023-03-16T05:49:20.401Z,98618.91
2023-03-16T05:51:47.168Z,98629.97
2023-03-16T05:54:14.065Z,98627.84
2023-03-16T05:56:45.977Z,98630.03
2023-03-16T05:59:13.020Z,98627.94
2023-03-16T06:01:41.984Z,98625.00
2023-03-16T06:04:09.134Z,98620.19
2023-03-16T06:06:40.159Z,98626.16
2023-03-16T06:09:22.177Z,98629.41
2023-03-16T06:11:49.141Z,98630.69
2023-03-16T06:14:17.657Z,98634.19
2023-03-16T06:16:45.835Z,98636.31
2023-03-16T06:19:14.137Z,98648.59
2023-03-16T06:21:41.663Z,98657.69
2023-03-16T06:24:10.358Z,98667.16
2023-03-16T06:26:37.484Z,98666.09
2023-03-16T06:29:07.244Z,98667.47
2023-03-16T06:31:36.621Z,98661.06
2023-03-16T06:34:03.695Z,98657.56
2023-03-16T06:36:31.165Z,98660.22
2023-03-16T06:39:00.894Z,98659.19
2023-03-16T06:41:38.237Z,98660.56
2023-03-16T06:44:09.223Z,98657.19
2023-03-16T06:46:41.771Z,98649.22
2023-03-16T06:49:08.790Z,98653.59
2023-03-16T06:51:35.668Z,98652.06
2023-03-16T06:54:02.750Z,98653.19
2023-03-16T06:56:31.858Z,98647.09
2023-03-16T06:58:58.683Z,98659.56
2023-03-16T07:01:25.944Z,98654.03
2023-03-16T07:03:53.186Z,98648.16
2023-03-16T07:06:24.804Z,98642.06
2023-03-16T07:08:51.770Z,98643.75
2023-03-16T07:11:20.040Z,98649.44
2023-03-16T07:13:47.155Z,98650.03
2023-03-16T07:16:15.903Z,98650.38
2023-03-16T07:18:44.523Z,98655.81
2023-03-16T07:21:14.484Z,98662.41
2023-03-16T07:23:42.254Z,98665.72
2023-03-16T07:26:12.115Z,98652.13
2023-03-16T07:28:48.286Z,98658.88
2023-03-16T07:31:15.698Z,98653.25
2023-03-16T07:33:42.793Z,98652.75
2023-03-16T07:36:13.964Z,98644.75
2023-03-16T07:38:46.175Z,98640.31
2023-03-16T07:41:14.249Z,98643.50
2023-03-16T07:43:41.579Z,98641.97
2023-03-16T07:46:13.758Z,98639.69
2023-03-16T07:48:42.684Z,98640.31
2023-03-16T07:51:11.867Z,98639.53
2023-03-16T07:53:39.556Z,98635.53
2023-03-16T07:56:16.071Z,98639.59
2023-03-16T07:58:45.919Z,98633.69
2023-03-16T08:01:12.754Z,98628.63
2023-03-16T08:03:39.635Z,98622.47
2023-03-16T08:06:07.141Z,98635.75
2023-03-16T08:08:35.312Z,98635.59
2023-03-16T08:11:02.323Z,98640.50
2023-03-16T08:13:44.131Z,98641.16
2023-03-16T08:16:13.599Z,98647.66
2023-03-16T08:18:43.663Z,98647.38
2023-03-16T08:21:10.778Z,98646.28
2023-03-16T08:23:37.619Z,98644.28
2023-03-16T08:26:09.141Z,98646.94
2023-03-16T08:28:38.036Z,98648.00
2023-03-16T08:31:09.530Z,98643.69
2023-03-16T08:33:44.311Z,98642.31
2023-03-16T08:36:13.723Z,98645.56
2023-03-16T08:38:44.171Z,98651.81
2023-03-16T08:41:17.531Z,98653.97
2023-03-16T08:43:47.844Z,98652.34
2023-03-16T08:46:14.785Z,98655.31
2023-03-16T08:48:55.905Z,98655.88
2023-03-16T08:51:25.071Z,98656.16
2023-03-16T08:53:53.009Z,98655.69
2023-03-16T08:56:20.051Z,98659.44
2023-03-16T08:58:46.802Z,98654.81
2023-03-16T09:01:14.642Z,98659.88
2023-03-16T09:03:42.596Z,98661.22
2023-03-16T09:06:11.190Z,98653.13
2023-03-16T09:08:41.051Z,98652.88
2023-03-16T09:11:10.603Z,98656.13
2023-03-16T09:13:38.857Z,98651.28
2023-03-16T09:16:06.897Z,98651.03
2023-03-16T09:18:35.456Z,98647.78
2023-03-16T09:21:04.203Z,98645.91
2023-03-16T09:23:31.981Z,98644.91
2023-03-16T09:26:00.080Z,98647.38
2023-03-16T09:28:30.950Z,98650.94
2023-03-16T09:30:58.574Z,98650.44
2023-03-16T09:33:25.865Z,98662.31
2023-03-16T09:35:52.805Z,98645.88
2023-03-16T09:38:19.632Z,98648.31
2023-03-16T09:40:49.010Z,98653.72
2023-03-16T09:43:15.715Z,98645.63
2023-03-16T09:45:42.672Z,98650.22
2023-03-16T09:48:10.797Z,98647.59
2023-03-16T09:50:48.912Z,98643.81
2023-03-16T09:53:24.972Z,98646.81
2023-03-16T09:56:03.729Z,98655.72
2023-03-16T09:58:33.002Z,98652.47
2023-03-16T10:01:20.016Z,98652.97
2023-03-16T10:03:57.277Z,98655.91
2023-03-16T10:06:24.974Z,98660.81
2023-03-16T10:08:52.280Z,98662.97
2023-03-16T10:11:32.293Z,98656.25
2023-03-16T10:14:11.730Z,98657.06
2023-03-16T10:16:41.881Z,98653.56
2023-03-16T10:19:13.324Z,98652.22
2023-03-16T10:21:41.408Z,98654.66
2023-03-16T10:24:27.314Z,98654.97
2023-03-16T10:27:00.989Z,98653.63
2023-03-16T10:29:32.297Z,98656.63
2023-03-16T10:32:01.540Z,98655.56
2023-03-16T10:34:28.763Z,98657.44
2023-03-16T10:36:55.774Z,98663.91
2023-03-16T10:39:22.524Z,98661.72
2023-03-16T10:41:56.296Z,98667.91
2023-03-16T10:44:24.660Z,98672.69
2023-03-16T10:46:59.792Z,98668.06
2023-03-16T10:49:27.384Z,98669.06
2023-03-16T10:51:59.651Z,98664.97
2023-03-16T10:54:32.675Z,98664.13
2023-03-16T10:57:00.618Z,98670.56
2023-03-16T10:59:27.916Z,98659.78
2023-03-16T11:01:54.942Z,98661.69
2023-03-16T11:04:21.888Z,98656.81
2023-03-16T11:06:51.639Z,98661.63
2023-03-16T11:09:24.059Z,98670.22
2023-03-16T11:11:51.197Z,98671.53
2023-03-16T11:14:20.342Z,98667.47
2023-03-16T11:16:51.230Z,98667.72
2023-03-16T11:19:24.300Z,98661.75
2023-03-16T11:22:01.482Z,98679.50
2023-03-16T11:24:34.813Z,98670.31
2023-03-16T11:27:04.601Z,98673.50
2023-03-16T11:29:34.831Z,98666.19
2023-03-16T11:32:05.793Z,98668.59
2023-03-16T11:34:33.352Z,98671.53
2023-03-16T11:37:06.371Z,98679.03
2023-03-16T11:39:45.268Z,98683.28
2023-03-16T11:42:18.817Z,98681.09
2023-03-16T11:44:55.993Z,98687.78
2023-03-16T11:47:27.174Z,98685.63
2023-03-16T11:50:03.065Z,98693.94
2023-03-16T11:52:49.455Z,98695.00
2023-03-16T11:55:46.754Z,98700.06
2023-03-16T11:58:16.623Z,98697.31
2023-03-16T12:00:46.897Z,98698.66
2023-03-16T12:03:17.651Z,98705.31
2023-03-16T12:05:47.916Z,98701.81
2023-03-16T12:08:17.727Z,98693.16
2023-03-16T12:10:47.444Z,98702.88
2023-03-16T12:13:17.341Z,98711.50
2023-03-16T12:15:52.255Z,98696.22
2023-03-16T12:18:42.543Z,98705.66
2023-03-16T12:21:20.213Z,98702.16
2023-03-16T12:23:55.474Z,98698.66
2023-03-16T12:26:24.741Z,98700.75
2023-03-16T12:28:53.169Z,98707.44
2023-03-16T12:31:24.101Z,98707.94
2023-03-16T12:34:00.637Z,98713.81
2023-03-16T12:36:30.423Z,98712.19
2023-03-16T12:39:02.293Z,98713.50
2023-03-16T12:41:49.283Z,98716.47
2023-03-16T12:44:19.242Z,98713.19
2023-03-16T12:46:53.616Z,98721.53
2023-03-16T12:49:24.903Z,98722.00
2023-03-16T12:52:02.659Z,98725.94
2023-03-16T12:54:30.023Z,98735.22
2023-03-16T12:57:02.294Z,98733.25
2023-03-16T12:59:36.978Z,98735.38
2023-03-16T13:02:04.209Z,98741.00
2023-03-16T13:04:33.929Z,98734.50
2023-03-16T13:07:03.293Z,98730.09
2023-03-16T13:09:35.314Z,98728.94
2023-03-16T13:12:05.229Z,98736.13
2023-03-16T13:14:43.382Z,98733.34
2023-03-16T13:17:16.252Z,98734.81
2023-03-16T13:19:45.207Z,98730.06
2023-03-16T13:22:26.147Z,98728.38
2023-03-16T13:25:14.138Z,98725.34
2023-03-16T13:27:43.539Z,98731.22
2023-03-16T13:30:18.964Z,98726.56
2023-03-16T13:32:46.936Z,98726.25
2023-03-16T13:35:15.572Z,98722.41
2023-03-16T13:37:43.862Z,98733.06
2023-03-16T13:40:22.104Z,98720.34
2023-03-16T13:42:54.899Z,98721.06
2023-03-16T13:45:23.442Z,98733.34
2023-03-16T13:47:50.707Z,98746.69
2023-03-16T13:50:19.011Z,98732.78
2023-03-16T13:52:56.196Z,98724.72
2023-03-16T13:55:26.872Z,98731.63
2023-03-16T13:57:53.660Z,98738.31
2023-03-16T14:00:24.871Z,98736.91
2023-03-16T14:02:53.297Z,98733.66
2023-03-16T14:05:22.484Z,98731.19
2023-03-16T14:07:51.075Z,98734.94
2023-03-16T14:10:18.135Z,98735.16
2023-03-16T14:12:51.819Z,98735.66
2023-03-16T14:15:19.130Z,98728.31
2023-03-16T14:17:46.491Z,98735.22
2023-03-16T14:20:21.269Z,98728.94
2023-03-16T14:22:50.879Z,98723.25
2023-03-16T14:25:23.742Z,98724.28
2023-03-16T14:27:58.609Z,98730.97
2023-03-16T14:30:28.000Z,98735.97
2023-03-16T14:33:01.786Z,98726.50
2023-03-16T14:35:30.455Z,98736.09
2023-03-16T14:37:57.942Z,98732.25
2023-03-16T14:40:30.800Z,98736.22
2023-03-16T14:42:59.886Z,98745.81
2023-03-16T14:45:30.327Z,98741.41
2023-03-16T14:48:03.489Z,98754.69
2023-03-16T14:50:31.170Z,98760.97
2023-03-16T14:52:58.293Z,98760.88
2023-03-16T14:55:26.017Z,98756.22
2023-03-16T14:57:53.386Z,98765.56
2023-03-16T15:00:21.936Z,98764.38
2023-03-16T15:02:55.003Z,98768.34
2023-03-16T15:05:24.651Z,98770.44
2023-03-16T15:07:55.704Z,98767.41
2023-03-16T15:10:24.835Z,98765.19
2023-03-16T15:12:54.791Z,98771.59
2023-03-16T15:15:23.816Z,98784.19
2023-03-16T15:17:52.053Z,98769.38
2023-03-16T15:20:23.327Z,98765.31
2023-03-16T15:22:53.025Z,98771.72
2023-03-16T15:25:20.778Z,98780.22
2023-03-16T15:27:48.156Z,98778.59
2023-03-16T15:30:16.562Z,98783.13
2023-03-16T15:32:43.582Z,98791.41
2023-03-16T15:35:10.945Z,98794.91
2023-03-16T15:37:37.895Z,98811.81
2023-03-16T15:40:18.442Z,98806.22
2023-03-16T15:42:46.946Z,98811.13
2023-03-16T15:45:15.777Z,98811.94
2023-03-16T15:47:43.423Z,98806.34
2023-03-16T15:50:11.690Z,98813.34
2023-03-16T15:52:39.678Z,98805.28
2023-03-16T15:55:08.562Z,98809.00
2023-03-16T15:57:35.719Z,98812.50
2023-03-16T16:00:02.690Z,98828.59
2023-03-16T16:02:34.446Z,98830.22
2023-03-16T16:05:03.605Z,98836.63
2023-03-16T16:07:30.576Z,98842.81
2023-03-16T16:09:57.514Z,98849.00
2023-03-16T16:12:32.677Z,98860.31
2023-03-16T16:14:59.450Z,98857.84
2023-03-16T16:17:48.051Z,98868.56
2023-03-16T16:20:18.195Z,98865.09
2023-03-16T16:22:45.300Z,98864.25
2023-03-16T16:25:15.671Z,98866.94
2023-03-16T16:27:45.400Z,98875.81
2023-03-16T16:30:24.198Z,98881.97
2023-03-16T16:32:51.728Z,98889.78
2023-03-16T16:35:28.270Z,98883.03
2023-03-16T16:37:56.004Z,98899.00
2023-03-16T16:40:25.968Z,98898.88
2023-03-16T16:42:53.909Z,98897.69
2023-03-16T16:45:25.970Z,98902.66
2023-03-16T16:47:55.739Z,98901.94
2023-03-16T16:50:27.708Z,98893.78
2023-03-16T16:52:55.148Z,98914.84
2023-03-16T16:55:25.138Z,98919.63
2023-03-16T16:57:54.106Z,98919.03
2023-03-16T17:00:25.928Z,98916.59
2023-03-16T17:02:54.500Z,98922.41
2023-03-16T17:05:23.398Z,98929.03
2023-03-16T17:07:51.137Z,98927.59
2023-03-16T17:10:28.465Z,98935.84
2023-03-16T17:12:57.904Z,98928.03
2023-03-16T17:15:30.266Z,98928.03
2023-03-16T17:18:15.733Z,98933.41
2023-03-16T17:20:42.628Z,98933.41
2023-03-16T17:23:25.178Z,98925.13
2023-03-16T17:25:53.307Z,98925.94
2023-03-16T17:28:20.652Z,98930.50
2023-03-16T17:30:50.481Z,98918.59
2023-03-16T17:33:22.187Z,98927.09
2023-03-16T17:35:51.611Z,98934.31
2023-03-16T17:38:22.320Z,98930.81
2023-03-16T17:40:53.574Z,98931.63
2023-03-16T17:43:39.130Z,98940.69
2023-03-16T17:46:07.514Z,98941.53
2023-03-16T17:48:41.620Z,98945.47
2023-03-16T17:51:15.568Z,98943.03
2023-03-16T17:53:49.370Z,98948.59
2023-03-16T17:56:35.849Z,98946.16
2023-03-16T17:59:05.621Z,98947.41
2023-03-16T18:01:36.016Z,98960.81
2023-03-16T18:04:03.535Z,98955.66
2023-03-16T18:06:31.398Z,98961.03
2023-03-16T18:08:58.400Z,98966.38
2023-03-16T18:11:30.916Z,98958.81
2023-03-16T18:13:58.228Z,98961.47
2023-03-16T18:16:31.435Z,98964.97
2023-03-16T18:19:06.072Z,98974.88
2023-03-16T18:21:33.618Z,98964.16
2023-03-16T18:24:03.524Z,98958.81
2023-03-16T18:28:41.650Z,98973.22
2023-03-16T18:30:19.994Z,98972.41
2023-03-16T18:32:47.884Z,98970.97
2023-03-16T18:35:15.798Z,98976.56
2023-03-16T18:37:43.342Z,98975.97
2023-03-16T18:40:17.396Z,98982.34
2023-03-16T18:42:47.119Z,98972.91
2023-03-16T18:45:18.403Z,98985.47
2023-03-16T18:47:49.196Z,98988.16
2023-03-16T18:50:19.935Z,98996.41
2023-03-16T18:52:49.700Z,98980.78
2023-03-16T18:55:18.595Z,98996.25
2023-03-16T18:57:49.553Z,98998.78
2023-03-16T19:00:21.476Z,99003.53
2023-03-16T19:02:53.303Z,99015.50
2023-03-16T19:05:22.481Z,98997.22
2023-03-16T19:07:51.682Z,99008.34
2023-03-16T19:10:23.831Z,99019.84
2023-03-16T19:12:51.025Z,99016.59
2023-03-16T19:15:22.792Z,99029.97
2023-03-16T19:17:51.834Z,99017.84
2023-03-16T19:20:20.630Z,99029.59
2023-03-16T19:22:49.364Z,99035.97
2023-03-16T19:25:29.634Z,99034.34
2023-03-16T19:27:59.596Z,99044.22
2023-03-16T19:30:30.333Z,99032.72
2023-03-16T19:32:58.242Z,99030.63
2023-03-16T19:35:44.321Z,99047.28
2023-03-16T19:38:15.230Z,99043.78
2023-03-16T19:40:42.675Z,99044.00
2023-03-16T19:43:15.245Z,99047.94
2023-03-16T19:45:43.140Z,99056.78
2023-03-16T19:48:22.466Z,99064.00
2023-03-16T19:50:50.173Z,99058.88
2023-03-16T19:53:22.636Z,99066.91
2023-03-16T19:55:50.807Z,99070.63
2023-03-16T19:58:31.490Z,99070.84
2023-03-16T20:01:03.626Z,99071.66
2023-03-16T20:03:34.246Z,99078.19
2023-03-16T20:06:01.367Z,99069.34
2023-03-16T20:08:29.262Z,99069.56
2023-03-16T20:11:05.727Z,99075.59
2023-03-16T20:13:35.785Z,99066.72
2023-03-16T20:16:03.678Z,99060.78
2023-03-16T20:18:30.634Z,99068.81
2023-03-16T20:20:58.781Z,99074.16
2023-03-16T20:23:27.038Z,99074.38
2023-03-16T20:26:02.990Z,99073.78
2023-03-16T20:28:38.885Z,99061.22
2023-03-16T20:31:08.334Z,99071.94
2023-03-16T20:33:36.532Z,99073.56
2023-03-16T20:36:07.881Z,99086.13
2023-03-16T20:38:34.806Z,99092.50
2023-03-16T20:41:01.884Z,99083.88
2023-03-16T20:43:30.316Z,99085.97
2023-03-16T20:45:59.171Z,99085.13
2023-03-16T20:48:31.239Z,99088.84
2023-03-16T20:53:43.918Z,99082.88
2023-03-16T20:56:14.696Z,99088.03
2023-03-16T20:58:44.645Z,99100.56
2023-03-16T21:01:18.752Z,99091.53
2023-03-16T21:03:47.839Z,99094.19
2023-03-16T21:06:26.471Z,99097.88
2023-03-16T21:09:05.984Z,99107.56
2023-03-16T21:11:36.102Z,99118.47
2023-03-16T21:14:03.521Z,99118.47
2023-03-16T21:16:31.085Z,99108.78
2023-03-16T21:18:57.955Z,99117.66
2023-03-16T21:21:25.688Z,99115.78
2023-03-16T21:23:52.803Z,99122.81
2023-03-16T21:26:52.768Z,99121.97
2023-03-16T21:29:22.086Z,99118.28
2023-03-16T21:31:49.123Z,99128.53
2023-03-16T21:34:30.324Z,99121.13
2023-03-16T21:37:01.439Z,99119.25
2023-03-16T21:39:30.370Z,99125.66
2023-03-16T21:41:57.199Z,99123.19
2023-03-16T21:44:24.171Z,99115.16
2023-03-16T21:46:51.234Z,99126.69
2023-03-16T21:49:18.251Z,99128.34
2023-03-16T21:51:45.169Z,99123.19
2023-03-16T21:54:14.558Z,99117.03
2023-03-16T21:56:43.006Z,99122.38
2023-03-16T21:59:10.122Z,99119.69
2023-03-16T22:01:54.340Z,99128.75
2023-03-16T22:04:28.024Z,99132.47
2023-03-16T22:06:54.846Z,99122.81
2023-03-16T22:09:30.179Z,99128.16
2023-03-16T22:11:57.251Z,99140.50
2023-03-16T22:14:24.063Z,99138.22
2023-03-16T22:16:51.776Z,99133.09
2023-03-16T22:19:19.033Z,99147.72
2023-03-16T22:21:47.322Z,99144.00
2023-03-16T22:24:16.615Z,99148.53
2023-03-16T22:26:43.491Z,99151.00
2023-03-16T22:29:30.812Z,99155.31
2023-03-16T22:32:08.604Z,99148.09
2023-03-16T22:34:38.276Z,99142.75
2023-03-16T22:37:05.751Z,99159.63
2023-03-16T22:39:35.503Z,99167.88
2023-03-16T22:42:02.584Z,99162.53
2023-03-16T22:44:29.782Z,99162.53
2023-03-16T22:46:56.924Z,99175.69
2023-03-16T22:49:26.416Z,99182.06
2023-03-16T22:51:55.586Z,99174.25
2023-03-16T22:54:24.854Z,99189.69
2023-03-16T22:56:52.237Z,99192.38
2023-03-16T22:59:21.037Z,99192.59
2023-03-16T23:01:49.342Z,99181.88
2023-03-16T23:04:18.812Z,99187.25
2023-03-16T23:06:47.312Z,99178.59
2023-03-16T23:09:15.507Z,99187.66
2023-03-16T23:11:43.747Z,99180.69
2023-03-16T23:14:14.994Z,99193.00
2023-03-16T23:16:42.140Z,99191.16
2023-03-16T23:19:25.223Z,99193.00
2023-03-16T23:21:54.677Z,99199.19
2023-03-16T23:24:22.260Z,99196.50
2023-03-16T23:26:49.796Z,99204.75
2023-03-16T23:29:16.749Z,99197.75
2023-03-16T23:31:43.666Z,99202.28
2023-03-16T23:34:14.490Z,99207.03
2023-03-16T23:36:41.443Z,99206.22
2023-03-16T23:39:09.100Z,99211.56
2023-03-16T23:41:36.522Z,99200.03
2023-03-16T23:44:05.095Z,99206.44
2023-03-16T23:46:32.121Z,99205.59
2023-03-16T23:49:01.925Z,99220.84
2023-03-16T23:51:30.968Z,99203.75
2023-03-16T23:53:58.411Z,99220.84
2023-03-16T23:56:26.282Z,99213.84
2023-03-16T23:58:53.394Z,99220.00
